EHWO/WOE METAR and TAF weather

Enter ICAO airport designator
Station Type Date Time Source
EHWO METAR 2018/04/26 14:55 UTC NOAA

EHWO 261455Z AUTO 28013KT 220V340 9999 SCT046/// BKN051/// BKN058/// 14/04 Q1016 BLU


Station Type Date Time Source
EHWO Decoded METAR 2018/04/26 14:55 UTC NOAA

Woensdrecht, Netherlands (EHWO) 51-27N 004-20E 17M
Apr 26, 2018 - 10:55 AM EDT / 2018.04.26 1455 UTC
Wind: from the W (280 degrees) at 15 MPH (13 KT) (direction variable):0
Visibility: greater than 7 mile(s):0
Sky conditions: mostly cloudy
Temperature: 57 F (14 C)
Dew Point: 39 F (4 C)
Relative Humidity: 50%
Pressure (altimeter): 30.00 in. Hg (1016 hPa)
ob: EHWO 261455Z AUTO 28013KT 220V340 9999 SCT046/// BKN051/// BKN058/// 14/04 Q1016 BLU
cycle: 15

Station Type Date Time Source
EHWO TAF 2018/04/26 13:03 UTC NOAA

TAF TAF EHWO 261449Z 2613/2701 26015KT 9999 SCT040
BECMG 2618/2621 22007KT


Example: see airport list